Latest Weather Observations for Perth Airport

IDW60801

Issued at 2:05 pm WST Saturday 2 August 2014 (issued every 30 minutes, with the page automatically refreshed every 10 minutes)

About weather observations | Map of weather stations | Latest weather observations for WA | Other Formats
Station Details ID: 009021 Name: PERTH AIRPORT Lat: -31.93 Lon: 115.98 Height: 15.4 m
Data from the previous 72 hours. | See also: Recent months at Perth Airport
Date/Time
WST
Temp
°C
App
Temp
°C
Dew
Point
Rel
Hum
%
Delta-T
°C
Wind Press
QNH
hPa
Press
MSL
hPa
Rain
since 9 am
mm
Dir
 
Spd
km/h
Gust
km/h
Spd
kts
Gust
kts
02/02:00pm 18.6 16.0 10.6 59 4.3 SSW 15 19 8 10 1025.8 - 0.0
02/01:30pm 18.0 14.4 10.5 61 4.0 SSW 20 26 11 14 1025.9 - 0.0
02/01:00pm 18.2 14.3 9.4 56 4.6 SSW 20 28 11 15 1025.9 - 0.0
02/12:30pm 18.4 14.3 8.5 52 5.1 SW 20 32 11 17 1025.9 - 0.0
02/12:00pm 18.8 15.9 8.3 50 5.4 WSW 13 19 7 10 1026.1 1026.2 0.0
02/11:30am 17.9 17.3 9.0 56 4.6 N 2 7 1 4 1026.3 - 0.0
02/11:00am 17.7 16.1 8.8 56 4.6 N 7 9 4 5 1026.3 - 0.0
02/10:30am 16.0 13.7 7.5 57 4.2 NNW 9 13 5 7 1026.2 - 0.0
02/10:00am 14.8 11.6 7.0 59 3.8 NNE 13 15 7 8 1026.0 - 0.0
02/09:30am 12.8 9.8 6.2 64 3.1 N 11 15 6 8 1026.0 - 0.0
02/09:00am 12.2 9.6 6.0 66 2.9 NNE 9 9 5 5 1025.9 1026.0 0.0
02/08:30am 10.1 6.9 5.0 70 2.3 NNE 11 15 6 8 1025.6 - 0.0
02/08:00am 8.3 5.4 4.4 76 1.7 N 9 13 5 7 1025.3 - 0.0
02/07:30am 7.1 3.8 4.8 85 1.0 NNE 11 13 6 7 1025.1 - 0.0
02/07:00am 6.9 4.6 4.6 85 1.0 NE 6 11 3 6 1024.9 - 0.0
02/06:30am 6.4 3.0 4.0 85 1.0 N 11 11 6 6 1024.6 - 0.0
02/06:00am 6.1 3.1 4.2 88 0.8 N 9 13 5 7 1024.2 1024.3 0.0
02/05:30am 5.6 2.6 4.2 91 0.6 NNE 9 11 5 6 1024.1 - 0.0
02/05:00am 5.5 2.4 3.8 89 0.7 NNE 9 9 5 5 1024.0 - 0.0
02/04:30am 4.5 1.8 3.8 95 0.3 NE 7 9 4 5 1023.9 - 0.0
02/04:00am 4.3 1.6 3.6 95 0.3 N 7 11 4 6 1024.0 - 0.0
02/03:30am 5.4 2.8 4.2 92 0.5 W 7 9 4 5 1024.1 - 0.0
02/03:00am 5.7 4.1 4.3 91 0.6 NNE 2 6 1 3 1023.7 1023.8 0.0
02/02:30am 6.0 3.5 4.6 91 0.6 NNE 7 9 4 5 1023.6 - 0.0
02/02:00am 7.9 5.6 4.7 80 1.4 NNE 6 7 3 4 1023.6 - 0.0
02/01:30am 8.7 5.8 4.6 75 1.8 NE 9 13 5 7 1023.4 - 0.0
02/01:00am 9.1 6.2 4.8 74 1.9 NNE 9 9 5 5 1023.5 - 0.0
02/12:30am 9.5 6.6 4.8 72 2.1 NNE 9 11 5 6 1023.5 - 0.0
02/12:00am 9.5 6.3 5.0 73 2.0 NE 11 13 6 7 1023.3 1023.4 0.0
 
Date/Time
WST
Temp
°C
App
Temp
°C
Dew
Point
Rel
Hum
%
Delta-T
°C
Wind Press
QNH
hPa
Press
MSL
hPa
Rain
since 9 am
mm
Dir
 
Spd
km/h
Gust
km/h
Spd
kts
Gust
kts
01/11:30pm 9.7 5.4 5.3 74 2.0 NE 17 19 9 10 1023.5 - 0.0
01/11:00pm 10.0 6.4 5.1 71 2.2 NE 13 15 7 8 1023.9 - 0.0
01/10:30pm 9.8 5.9 5.4 74 2.0 NE 15 26 8 14 1024.1 - 0.0
01/10:00pm 9.9 6.8 5.5 74 2.0 NE 11 13 6 7 1024.4 - 0.0
01/09:30pm 10.2 6.7 5.3 71 2.2 ENE 13 17 7 9 1024.3 - 0.0
01/09:00pm 10.5 6.6 5.4 70 2.3 ENE 15 17 8 9 1024.3 1024.4 0.0
01/08:30pm 10.7 7.3 5.7 71 2.3 ENE 13 15 7 8 1024.6 - 0.0
01/08:00pm 10.6 6.8 5.8 72 2.2 E 15 19 8 10 1024.5 - 0.0
01/07:30pm 10.6 7.2 6.1 74 2.1 ENE 13 15 7 8 1024.4 - 0.0
01/07:00pm 10.9 7.6 6.4 74 2.1 E 13 26 7 14 1024.2 - 0.0
01/06:30pm 11.3 7.6 6.4 72 2.3 E 15 17 8 9 1024.1 - 0.0
01/06:00pm 13.1 10.1 6.1 62 3.3 ENE 11 15 6 8 1024.1 1024.2 0.0
01/05:30pm 14.5 11.2 6.4 58 3.9 ENE 13 15 7 8 1024.0 - 0.0
01/05:00pm 16.1 12.3 5.9 50 4.9 NE 15 19 8 10 1023.9 - 0.0
01/04:30pm 16.8 12.9 5.3 46 5.5 NE 15 20 8 11 1023.9 - 0.0
01/04:00pm 17.1 13.1 5.1 45 5.7 ENE 15 22 8 12 1023.8 - 0.0
01/03:30pm 17.0 12.3 5.3 46 5.6 NE 19 28 10 15 1023.8 - 0.0
01/03:00pm 17.1 12.3 4.9 44 5.8 NE 19 30 10 16 1023.9 1024.0 0.0
01/02:30pm 16.8 11.8 4.7 44 5.7 NE 20 30 11 16 1024.1 - 0.0
01/02:00pm 16.8 11.8 4.4 43 5.8 NE 20 30 11 16 1024.3 - 0.0
01/01:30pm 16.1 11.1 4.5 46 5.4 NE 20 30 11 16 1024.7 - 0.0
01/01:00pm 16.5 11.6 5.1 47 5.4 NE 20 30 11 16 1025.1 - 0.0
01/12:30pm 15.4 9.9 4.1 47 5.2 NE 22 32 12 17 1025.6 - 0.0
01/12:00pm 15.3 9.5 4.2 47 5.1 NNE 24 32 13 17 1026.2 1026.3 0.0
01/11:30am 14.3 8.7 3.4 48 4.9 NE 22 30 12 16 1026.7 - 0.0
01/11:00am 13.9 7.9 3.4 49 4.7 NE 24 32 13 17 1027.3 - 0.0
01/10:30am 13.0 6.9 3.0 50 4.4 NE 24 32 13 17 1027.5 - 0.0
01/10:00am 12.0 6.2 2.5 52 4.1 NE 22 37 12 20 1027.6 - 0.0
01/09:30am 11.3 6.1 2.4 54 3.8 ENE 19 28 10 15 1027.8 - 0.0
01/09:00am 9.5 3.8 2.6 62 2.9 ENE 22 30 12 16 1027.7 1027.8 0.0
01/08:30am 8.1 1.4 1.7 64 2.6 ENE 26 35 14 19 1027.3 - 0.0
01/08:00am 7.0 0.4 1.8 69 2.1 ENE 26 33 14 18 1027.4 - 0.0
01/07:30am 5.9 0.4 1.9 75 1.6 ENE 20 28 11 15 1027.2 - 0.0
01/07:00am 5.7 -0.2 1.7 75 1.6 ENE 22 30 12 16 1026.8 - 0.0
01/06:30am 5.7 0.2 1.9 76 1.5 ENE 20 32 11 17 1026.6 - 0.0
01/06:00am 5.9 0.6 1.9 75 1.6 ENE 19 30 10 16 1026.2 1026.3 0.0
01/05:30am 5.7 0.8 2.2 78 1.4 ENE 17 20 9 11 1026.1 - 0.0
01/05:00am 5.5 0.6 2.3 80 1.3 NE 17 22 9 12 1026.2 - 0.0
01/04:30am 5.5 0.7 2.5 81 1.2 NE 17 24 9 13 1026.0 - 0.0
01/04:00am 5.6 1.6 2.6 81 1.2 NE 13 17 7 9 1026.1 - 0.0
01/03:30am 5.2 0.9 3.0 86 0.9 ENE 15 19 8 10 1026.4 - 0.0
01/03:00am 4.7 1.5 3.2 90 0.6 NE 9 13 5 7 1026.6 1026.7 0.0
01/02:30am 3.6 0.7 2.6 93 0.4 NE 7 11 4 6 1027.0 - 0.0
01/02:00am 3.5 0.9 3.0 97 0.2 SE 6 7 3 4 1027.5 - 0.0
01/01:30am 3.5 0.3 3.0 97 0.2 E 9 13 5 7 1027.8 - 0.0
01/01:00am 4.0 0.8 3.3 95 0.3 E 9 13 5 7 1027.9 - 0.0
01/12:30am 3.9 1.2 3.7 99 0.1 E 7 13 4 7 1027.9 - 0.0
01/12:00am 4.1 1.0 3.4 95 0.3 ENE 9 15 5 8 1028.1 1028.2 0.0
 
Date/Time
WST
Temp
°C
App
Temp
°C
Dew
Point
Rel
Hum
%
Delta-T
°C
Wind Press
QNH
hPa
Press
MSL
hPa
Rain
since 9 am
mm
Dir
 
Spd
km/h
Gust
km/h
Spd
kts
Gust
kts
31/11:30pm 4.9 1.9 3.9 93 0.4 ENE 9 13 5 7 1028.0 - 0.0
31/11:00pm 5.2 1.8 4.2 93 0.4 NE 11 17 6 9 1028.0 - 0.0
31/10:30pm 5.2 2.6 4.2 93 0.4 NNE 7 13 4 7 1028.1 - 0.0
31/10:00pm 5.3 2.7 4.4 94 0.4 ENE 7 9 4 5 1028.3 - 0.0
31/09:30pm 5.8 3.3 4.6 92 0.5 ESE 7 9 4 5 1028.2 - 0.0
31/09:00pm 6.3 3.4 4.9 91 0.6 ESE 9 11 5 6 1028.0 1028.1 0.0
31/08:30pm 7.1 4.3 5.0 86 0.9 ESE 9 15 5 8 1027.7 - 0.0
31/08:00pm 7.6 4.8 5.1 84 1.1 E 9 13 5 7 1027.6 - 0.0
31/07:30pm 8.2 5.0 5.3 82 1.3 E 11 13 6 7 1027.3 - 0.0
31/07:00pm 8.9 5.4 5.6 80 1.5 E 13 19 7 10 1027.2 - 0.0
31/06:30pm 9.8 6.3 5.6 75 1.9 ESE 13 15 7 8 1027.0 - 0.0
31/06:00pm 11.4 7.9 5.3 66 2.8 ESE 13 17 7 9 1026.6 1026.7 0.0
31/05:30pm 13.0 9.4 4.9 58 3.7 E 13 19 7 10 1026.2 - 0.0
31/05:00pm 14.3 9.5 4.8 53 4.4 ENE 19 20 10 11 1025.8 - 0.0
31/04:30pm 15.3 11.6 4.5 48 5.0 E 13 24 7 13 1025.8 - 0.0
31/04:00pm 15.4 11.2 3.8 46 5.3 ESE 15 22 8 12 1025.7 - 0.0
31/03:30pm 15.8 11.3 4.1 45 5.4 ENE 17 24 9 13 1025.7 - 0.0
31/03:00pm 16.2 12.5 4.7 46 5.4 E 13 20 7 11 1025.5 1025.6 0.0
31/02:30pm 16.0 12.2 4.1 45 5.5 E 13 26 7 14 1025.6 - 0.0
31/02:00pm 15.7 11.9 3.7 44 5.5 NE 13 19 7 10 1025.8 - 0.0
31/01:30pm 15.3 11.6 4.2 47 5.1 NE 13 17 7 9 1026.1 - 0.0
31/01:00pm 15.0 11.3 4.4 49 4.9 ESE 13 19 7 10 1026.4 - 0.0
31/12:30pm 14.8 10.7 4.4 49 4.8 E 15 22 8 12 1027.0 - 0.0
31/12:00pm 14.3 10.2 4.2 50 4.6 SSE 15 22 8 12 1027.5 1027.6 0.0
31/11:30am 13.0 10.0 3.9 54 4.1 SE 9 13 5 7 1027.8 - 0.0
31/11:00am 12.9 9.6 4.3 56 3.9 SSE 11 19 6 10 1028.1 - 0.0
31/10:30am 12.8 8.8 4.7 58 3.7 SE 15 19 8 10 1028.0 - 0.0
31/10:00am 13.0 9.7 4.7 57 3.8 SSE 11 15 6 8 1027.8 - 0.0
31/09:30am 12.1 8.0 4.6 60 3.4 SE 15 20 8 11 1027.8 - 0.0
31/09:00am 11.3 8.2 5.4 67 2.7 ESE 11 13 6 7 1027.7 1027.8 0.6
31/08:30am 10.7 7.5 5.2 69 2.5 SE 11 13 6 7 1027.4 - 0.6
31/08:00am 10.0 6.9 5.6 74 2.0 SSE 11 17 6 9 1026.8 - 0.6
31/07:30am 8.6 5.6 6.2 85 1.1 S 11 17 6 9 1026.1 - 0.6
31/07:00am 7.2 4.9 5.9 91 0.6 SSE 7 11 4 6 1025.7 - 0.6
31/06:30am 7.2 4.5 5.6 89 0.7 S 9 11 5 6 1025.2 - 0.6
31/06:00am 7.4 4.4 6.1 91 0.6 SE 11 17 6 9 1024.8 1024.9 0.6
31/05:30am 8.8 5.5 6.2 84 1.2 SSE 13 15 7 8 1024.5 - 0.6
31/05:00am 10.0 6.3 6.1 77 1.8 SSE 15 19 8 10 1024.2 - 0.6
31/04:30am 10.9 6.3 6.6 75 2.0 S 20 26 11 14 1024.1 - 0.6
31/04:00am 11.7 5.8 7.5 75 2.0 S 28 35 15 19 1023.8 - 0.6
31/03:30am 12.1 7.3 8.9 81 1.6 S 24 30 13 16 1023.8 - 0.6
31/03:00am 12.3 6.7 8.9 80 1.7 S 28 33 15 18 1023.5 1023.6 0.6
31/02:30am 12.7 7.6 10.6 87 1.1 S 28 35 15 19 1023.1 - 0.6
31/02:00am 13.4 10.1 11.7 89 0.9 S 20 30 11 16 1023.0 - 0.6
31/01:30am 13.6 11.2 12.7 94 0.5 SSW 17 22 9 12 1022.9 - 0.6
31/01:00am 13.4 12.5 12.7 95 0.4 SSW 9 9 5 5 1022.7 - 0.6
31/12:30am 13.5 12.7 12.8 95 0.4 SSW 9 13 5 7 1022.8 - 0.6
31/12:00am 13.8 11.5 12.9 94 0.5 S 17 22 9 12 1022.8 1022.8 0.4
 
Date/Time
WST
Temp
°C
App
Temp
°C
Dew
Point
Rel
Hum
%
Delta-T
°C
Wind Press
QNH
hPa
Press
MSL
hPa
Rain
since 9 am
mm
Dir
 
Spd
km/h
Gust
km/h
Spd
kts
Gust
kts
30/11:30pm 13.8 12.4 13.3 97 0.3 S 13 17 7 9 1022.5 - 0.4
30/11:00pm 12.6 12.8 12.0 96 0.3 N 2 7 1 4 1022.6 - 0.2
30/10:30pm 12.4 12.6 12.0 97 0.2 NNW 2 7 1 4 1022.4 - 0.2
30/10:00pm 13.0 13.1 12.6 97 0.2 NW 4 9 2 5 1022.5 - 0.2
30/09:30pm 13.6 13.2 12.9 95 0.4 W 7 9 4 5 1022.5 - 0.2
30/09:00pm 14.4 13.8 13.5 94 0.5 W 9 15 5 8 1022.4 1022.4 0.2
30/08:30pm 14.0 12.6 13.3 96 0.4 NW 13 22 7 12 1022.3 - 0.2
30/08:13pm 14.4 13.4 13.5 94 0.5 W 11 17 6 9 1022.3 - 0.2
30/08:00pm 14.4 12.7 13.5 94 0.5 SW 15 22 8 12 1022.5 - 0.0
30/07:49pm 14.7 12.4 13.1 90 0.9 WSW 17 28 9 15 1022.4 - 0.0
30/07:30pm 15.0 11.4 12.0 82 1.6 WSW 22 32 12 17 1022.2 - 0.0
30/07:00pm 16.9 13.4 8.7 58 4.2 W 17 24 9 13 1021.7 - 0.0
30/06:30pm 16.5 14.3 9.3 62 3.7 W 11 13 6 7 1021.6 - 0.0
30/06:00pm 17.0 14.3 9.1 59 4.1 W 13 17 7 9 1021.6 1021.6 0.0
30/05:30pm 17.0 13.7 9.5 61 3.9 W 17 26 9 14 1021.7 - 0.0
30/05:00pm 17.2 13.1 8.6 57 4.4 W 20 28 11 15 1021.5 - 0.0
30/04:30pm 18.1 14.9 8.6 54 4.9 W 15 26 8 14 1021.3 - 0.0
30/04:00pm 18.2 14.0 8.2 52 5.1 W 20 32 11 17 1021.2 - 0.0
30/03:30pm 18.7 14.8 8.7 52 5.2 W 19 28 10 15 1021.1 - 0.0
30/03:00pm 18.3 14.0 9.3 55 4.7 W 22 33 12 18 1021.2 1021.2 0.0
30/02:30pm 17.9 13.4 9.9 59 4.2 WSW 24 33 13 18 1021.1 - 0.0

Other Formats:

Comma delimited format used in spreadsheet applications
http://www.bom.gov.au/fwo/IDW60801/IDW60801.94610.axf

JavaScript Object Notation format (JSON) in row-major order
http://www.bom.gov.au/fwo/IDW60801/IDW60801.94610.json